createdAt,value
2022-12-05T00:01:18.578Z,91.00
2022-12-05T00:03:46.320Z,90.76
2022-12-05T00:06:13.067Z,90.82
2022-12-05T00:08:41.429Z,90.93
2022-12-05T00:11:13.635Z,90.91
2022-12-05T00:13:41.191Z,91.25
2022-12-05T00:16:09.854Z,91.24
2022-12-05T00:18:37.239Z,91.50
2022-12-05T00:21:06.625Z,91.23
2022-12-05T00:23:33.672Z,91.05
2022-12-05T00:26:04.621Z,90.77
2022-12-05T00:28:32.371Z,91.74
2022-12-05T00:31:02.922Z,91.64
2022-12-05T00:33:29.849Z,91.46
2022-12-05T00:36:02.575Z,92.02
2022-12-05T00:38:29.421Z,92.62
2022-12-05T00:40:56.218Z,92.58
2022-12-05T00:43:24.664Z,92.91
2022-12-05T00:45:51.455Z,92.89
2022-12-05T00:48:18.346Z,93.34
2022-12-05T00:50:45.294Z,93.44
2022-12-05T00:53:12.048Z,93.69
2022-12-05T00:55:38.859Z,93.50
2022-12-05T00:58:05.638Z,93.54
2022-12-05T01:00:34.012Z,92.64
2022-12-05T01:03:01.137Z,92.38
2022-12-05T01:05:27.925Z,92.72
2022-12-05T01:07:54.824Z,92.37
2022-12-05T01:10:21.613Z,92.27
2022-12-05T01:12:48.593Z,92.33
2022-12-05T01:15:15.372Z,92.31
2022-12-05T01:17:43.772Z,92.24
2022-12-05T01:20:11.454Z,91.62
2022-12-05T01:22:38.339Z,92.00
2022-12-05T01:25:06.646Z,91.66
2022-12-05T01:27:33.432Z,91.31
2022-12-05T01:30:00.315Z,92.54
2022-12-05T01:32:27.286Z,93.07
2022-12-05T01:34:56.083Z,93.22
2022-12-05T01:37:23.087Z,92.78
2022-12-05T01:39:49.876Z,91.82
2022-12-05T01:42:20.541Z,92.71
2022-12-05T01:45:13.620Z,92.81
2022-12-05T01:47:41.980Z,93.24
2022-12-05T01:50:12.637Z,92.37
2022-12-05T01:52:40.682Z,91.82
2022-12-05T01:55:14.417Z,92.82
2022-12-05T01:57:42.055Z,92.69
2022-12-05T02:00:13.676Z,92.82
2022-12-05T02:02:46.584Z,92.72
2022-12-05T02:05:21.121Z,92.19
2022-12-05T02:07:48.571Z,91.93
2022-12-05T02:10:15.819Z,92.00
2022-12-05T02:12:45.048Z,92.68
2022-12-05T02:15:35.132Z,92.10
2022-12-05T02:18:23.586Z,92.10
2022-12-05T02:21:22.556Z,92.02
2022-12-05T02:24:27.633Z,92.16
2022-12-05T02:27:27.485Z,92.09
2022-12-05T02:30:07.071Z,92.34
2022-12-05T02:33:07.440Z,92.34
2022-12-05T02:35:47.054Z,92.59
2022-12-05T02:38:28.046Z,91.99
2022-12-05T02:41:11.822Z,91.92
2022-12-05T02:43:47.040Z,91.75
2022-12-05T02:46:22.074Z,91.92
2022-12-05T02:48:56.286Z,90.91
2022-12-05T02:51:29.166Z,91.86
2022-12-05T02:54:02.525Z,91.59
2022-12-05T02:56:33.135Z,92.23
2022-12-05T02:59:01.488Z,91.54
2022-12-05T03:01:32.389Z,91.86
2022-12-05T03:04:04.106Z,92.30
2022-12-05T03:06:36.760Z,92.35
2022-12-05T03:09:08.785Z,92.19
2022-12-05T03:11:42.308Z,91.22
2022-12-05T03:14:19.084Z,91.79
2022-12-05T03:16:51.535Z,91.73
2022-12-05T03:19:26.208Z,91.41
2022-12-05T03:22:01.037Z,90.69
2022-12-05T03:24:30.415Z,91.19
2022-12-05T03:27:11.012Z,91.39
2022-12-05T03:29:49.111Z,90.92
2022-12-05T03:32:27.297Z,91.58
2022-12-05T03:35:06.548Z,91.05
2022-12-05T03:37:46.547Z,90.78
2022-12-05T03:40:31.633Z,91.19
2022-12-05T03:43:08.318Z,91.66
2022-12-05T03:45:44.843Z,91.25
2022-12-05T03:48:25.763Z,91.08
2022-12-05T03:50:54.101Z,90.91
2022-12-05T03:53:28.159Z,89.38
2022-12-05T03:56:05.265Z,89.80
2022-12-05T03:58:43.278Z,89.53
2022-12-05T04:01:16.045Z,89.82
2022-12-05T04:03:50.572Z,89.24
2022-12-05T04:06:26.656Z,88.91
2022-12-05T04:08:59.309Z,88.66
2022-12-05T04:11:33.058Z,87.65
2022-12-05T04:14:08.537Z,87.58
2022-12-05T04:16:42.744Z,87.26
2022-12-05T04:19:19.151Z,87.41
2022-12-05T04:21:54.428Z,87.55
2022-12-05T04:24:26.811Z,87.26
2022-12-05T04:27:10.150Z,87.94
2022-12-05T04:29:50.680Z,88.08
2022-12-05T04:32:25.815Z,88.21
2022-12-05T04:35:05.600Z,88.01
2022-12-05T04:37:38.325Z,88.22
2022-12-05T04:40:17.863Z,88.84
2022-12-05T04:42:48.678Z,88.23
2022-12-05T04:45:20.463Z,88.00
2022-12-05T04:47:54.632Z,88.15
2022-12-05T04:50:26.705Z,88.29
2022-12-05T04:52:59.176Z,88.97
2022-12-05T04:55:27.144Z,89.34
2022-12-05T04:58:06.121Z,89.47
2022-12-05T05:00:45.532Z,90.10
2022-12-05T05:03:19.518Z,89.86
2022-12-05T05:05:54.251Z,89.93
2022-12-05T05:08:25.469Z,90.54
2022-12-05T05:11:07.798Z,90.31
2022-12-05T05:13:34.906Z,90.49
2022-12-05T05:16:01.722Z,90.56
2022-12-05T05:18:28.591Z,90.01
2022-12-05T05:20:57.432Z,89.92
2022-12-05T05:23:24.194Z,89.85
2022-12-05T05:25:55.555Z,89.57
2022-12-05T05:28:23.315Z,89.19
2022-12-05T05:30:50.123Z,87.87
2022-12-05T05:33:16.930Z,87.97
2022-12-05T05:35:43.700Z,88.67
2022-12-05T05:38:12.411Z,89.47
2022-12-05T05:40:39.166Z,89.20
2022-12-05T05:43:06.226Z,89.49
2022-12-05T05:45:33.017Z,89.29
2022-12-05T05:48:00.295Z,89.29
2022-12-05T05:50:27.169Z,89.71
2022-12-05T05:52:54.945Z,89.49
2022-12-05T05:55:23.038Z,89.12
2022-12-05T05:57:49.991Z,90.04
2022-12-05T06:00:18.009Z,89.56
2022-12-05T06:02:44.954Z,90.25
2022-12-05T06:05:11.886Z,90.42
2022-12-05T06:07:39.235Z,91.06
2022-12-05T06:10:07.802Z,91.82
2022-12-05T06:12:35.923Z,91.27
2022-12-05T06:15:04.031Z,91.47
2022-12-05T06:17:30.988Z,91.29
2022-12-05T06:19:58.090Z,91.59
2022-12-05T06:22:25.760Z,91.43
2022-12-05T06:24:53.886Z,90.83
2022-12-05T06:27:21.127Z,90.53
2022-12-05T06:29:49.382Z,90.12
2022-12-05T06:32:16.726Z,90.68
2022-12-05T06:34:43.443Z,90.77
2022-12-05T06:37:10.289Z,90.78
2022-12-05T06:39:37.471Z,90.46
2022-12-05T06:42:04.873Z,90.29
2022-12-05T06:44:32.025Z,89.84
2022-12-05T06:47:00.374Z,89.00
2022-12-05T06:49:31.622Z,88.98
2022-12-05T06:52:00.583Z,89.33
2022-12-05T06:54:27.501Z,89.39
2022-12-05T06:56:54.523Z,88.85
2022-12-05T06:59:21.391Z,88.43
2022-12-05T07:01:48.620Z,88.42
2022-12-05T07:04:19.750Z,88.21
2022-12-05T07:06:50.796Z,88.78
2022-12-05T07:09:20.207Z,89.67
2022-12-05T07:11:48.327Z,89.64
2022-12-05T07:14:39.008Z,89.40
2022-12-05T07:17:02.328Z,89.29
2022-12-05T07:19:30.809Z,88.94
2022-12-05T07:21:57.626Z,89.08
2022-12-05T07:24:24.411Z,88.67
2022-12-05T07:26:51.256Z,90.10
2022-12-05T07:29:18.317Z,90.20
2022-12-05T07:31:45.388Z,90.79
2022-12-05T07:34:12.447Z,90.34
2022-12-05T07:36:40.846Z,89.79
2022-12-05T07:39:07.830Z,89.39
2022-12-05T07:41:34.844Z,89.70
2022-12-05T07:44:06.567Z,88.64
2022-12-05T07:46:33.362Z,87.90
2022-12-05T07:49:00.117Z,87.86
2022-12-05T07:51:27.100Z,87.65
2022-12-05T07:53:55.588Z,86.59
2022-12-05T07:56:22.569Z,86.20
2022-12-05T07:58:50.847Z,87.21
2022-12-05T08:01:20.849Z,87.35
2022-12-05T08:03:48.747Z,87.03
2022-12-05T08:06:20.089Z,86.84
2022-12-05T08:08:48.252Z,87.38
2022-12-05T08:11:20.037Z,87.13
2022-12-05T08:13:48.445Z,87.57
2022-12-05T08:16:18.738Z,87.51
2022-12-05T08:18:46.484Z,87.72
2022-12-05T08:21:16.288Z,87.60
2022-12-05T08:23:44.869Z,88.99
2022-12-05T08:26:17.496Z,89.22
2022-12-05T08:28:44.988Z,89.81
2022-12-05T08:31:14.753Z,89.23
2022-12-05T08:33:42.544Z,89.29
2022-12-05T08:36:12.309Z,88.59
2022-12-05T08:38:39.876Z,88.47
2022-12-05T08:41:09.917Z,89.33
2022-12-05T08:43:38.676Z,89.38
2022-12-05T08:46:06.712Z,89.63
2022-12-05T08:48:35.606Z,89.35
2022-12-05T08:51:06.179Z,89.71
2022-12-05T08:53:35.081Z,89.74
2022-12-05T08:56:07.107Z,89.29
2022-12-05T08:58:34.504Z,88.98
2022-12-05T09:01:07.293Z,89.28
2022-12-05T09:03:34.527Z,89.63
2022-12-05T09:06:11.138Z,89.21
2022-12-05T09:08:39.165Z,89.32
2022-12-05T09:11:07.193Z,89.42
2022-12-05T09:13:35.372Z,88.98
2022-12-05T09:16:07.944Z,89.16
2022-12-05T09:18:35.470Z,89.92
2022-12-05T09:21:06.377Z,90.31
2022-12-05T09:23:33.279Z,90.60
2022-12-05T09:26:00.271Z,91.20
2022-12-05T09:28:27.331Z,90.76
2022-12-05T09:30:58.148Z,90.86
2022-12-05T09:33:26.284Z,90.58
2022-12-05T09:35:53.125Z,90.51
2022-12-05T09:38:19.977Z,90.40
2022-12-05T09:40:58.987Z,90.94
2022-12-05T09:43:37.001Z,90.15
2022-12-05T09:46:17.958Z,89.86
2022-12-05T09:48:47.786Z,90.85
2022-12-05T09:51:15.178Z,89.75
2022-12-05T09:53:44.991Z,90.72
2022-12-05T09:56:23.641Z,90.64
2022-12-05T09:58:53.159Z,91.80
2022-12-05T10:01:36.664Z,91.70
2022-12-05T10:04:27.438Z,90.38
2022-12-05T10:07:07.005Z,91.25
2022-12-05T10:09:59.344Z,91.44
2022-12-05T10:12:56.177Z,88.98
2022-12-05T10:15:33.848Z,90.24
2022-12-05T10:18:09.929Z,89.65
2022-12-05T10:20:47.781Z,89.51
2022-12-05T10:23:49.323Z,89.45
2022-12-05T10:26:16.406Z,88.99
2022-12-05T10:28:53.400Z,89.28
2022-12-05T10:31:30.189Z,89.56
2022-12-05T10:34:08.989Z,89.83
2022-12-05T10:36:37.130Z,89.84
2022-12-05T10:39:09.924Z,89.38
2022-12-05T10:41:38.671Z,89.37
2022-12-05T10:44:05.863Z,89.69
2022-12-05T10:46:33.247Z,90.73
2022-12-05T10:49:00.081Z,91.24
2022-12-05T10:51:34.049Z,90.53
2022-12-05T10:54:19.788Z,89.55
2022-12-05T10:56:49.639Z,89.86
2022-12-05T10:59:19.876Z,90.06
2022-12-05T11:01:51.482Z,88.46
2022-12-05T11:04:30.302Z,88.03
2022-12-05T11:07:01.240Z,88.12
2022-12-05T11:09:33.010Z,86.75
2022-12-05T11:12:19.284Z,88.15
2022-12-05T11:15:03.363Z,88.44
2022-12-05T11:17:35.016Z,88.30
2022-12-05T11:20:03.719Z,88.78
2022-12-05T11:22:34.117Z,89.60
2022-12-05T11:25:25.323Z,88.85
2022-12-05T11:27:54.197Z,88.94
2022-12-05T11:30:26.318Z,88.50
2022-12-05T11:33:12.402Z,89.24
2022-12-05T11:35:40.175Z,89.33
2022-12-05T11:38:11.138Z,88.51
2022-12-05T11:40:52.875Z,88.38
2022-12-05T11:43:48.332Z,88.21
2022-12-05T11:46:34.096Z,87.61
2022-12-05T11:49:27.664Z,87.29
2022-12-05T11:52:16.101Z,86.75
2022-12-05T11:55:05.005Z,85.19
2022-12-05T11:58:03.385Z,85.93
2022-12-05T12:00:45.209Z,86.29
2022-12-05T12:03:42.547Z,85.41
2022-12-05T12:06:28.352Z,84.59
2022-12-05T12:09:30.334Z,84.93
2022-12-05T12:12:12.799Z,84.18
2022-12-05T12:14:53.406Z,84.12
2022-12-05T12:17:34.969Z,83.68
2022-12-05T12:20:30.949Z,84.45
2022-12-05T12:23:22.935Z,83.72
2022-12-05T12:26:10.031Z,84.56
2022-12-05T12:28:46.010Z,85.61
2022-12-05T12:32:02.798Z,85.49
2022-12-05T12:35:03.423Z,84.56
2022-12-05T12:37:43.391Z,85.36
2022-12-05T12:40:20.718Z,84.66
2022-12-05T12:43:07.398Z,84.67
2022-12-05T12:45:59.650Z,83.68
2022-12-05T12:48:52.863Z,83.31
2022-12-05T12:51:20.115Z,82.62
2022-12-05T12:54:10.162Z,82.45
2022-12-05T12:56:52.347Z,83.49
2022-12-05T12:59:44.708Z,83.02
2022-12-05T13:02:22.638Z,83.39
2022-12-05T13:04:58.958Z,83.02
2022-12-05T13:07:38.833Z,81.89
2022-12-05T13:10:20.189Z,83.18
2022-12-05T13:12:48.647Z,82.78
2022-12-05T13:15:24.085Z,82.98
2022-12-05T13:17:54.399Z,82.18
2022-12-05T13:20:30.535Z,82.54
2022-12-05T13:22:59.187Z,82.15
2022-12-05T13:25:35.224Z,81.46
2022-12-05T13:28:09.730Z,82.21
2022-12-05T13:30:36.638Z,81.83
2022-12-05T13:33:09.965Z,82.28
2022-12-05T13:35:40.040Z,82.08
2022-12-05T13:38:21.710Z,82.53
2022-12-05T13:40:53.365Z,82.67
2022-12-05T13:43:25.338Z,82.16
2022-12-05T13:46:06.774Z,82.18
2022-12-05T13:48:39.098Z,82.24
2022-12-05T13:51:14.246Z,82.04
2022-12-05T13:53:45.282Z,82.56
2022-12-05T13:56:27.956Z,82.41
2022-12-05T13:58:56.987Z,82.96
2022-12-05T14:01:53.732Z,81.98
2022-12-05T14:04:46.828Z,82.57
2022-12-05T14:07:41.305Z,82.59
2022-12-05T14:10:11.312Z,81.93
2022-12-05T14:12:56.454Z,82.71
2022-12-05T14:15:33.967Z,83.62
2022-12-05T14:18:10.998Z,82.66
2022-12-05T14:21:07.700Z,83.26
2022-12-05T14:24:02.703Z,82.84
2022-12-05T14:27:02.456Z,82.65
2022-12-05T14:29:39.652Z,82.61
2022-12-05T14:32:22.396Z,81.79
2022-12-05T14:35:03.833Z,82.82
2022-12-05T14:37:35.684Z,83.51
2022-12-05T14:40:20.854Z,83.57
2022-12-05T14:42:56.687Z,83.27
2022-12-05T14:45:31.923Z,83.36
2022-12-05T14:48:01.836Z,82.41
2022-12-05T14:50:44.552Z,82.26
2022-12-05T14:53:24.672Z,83.08
2022-12-05T14:56:03.323Z,83.52
2022-12-05T14:58:40.444Z,83.76
2022-12-05T15:01:14.915Z,82.86
2022-12-05T15:04:07.385Z,83.15
2022-12-05T15:06:45.166Z,83.02
2022-12-05T15:09:37.656Z,83.48
2022-12-05T15:12:16.758Z,84.00
2022-12-05T15:14:57.130Z,85.26
2022-12-05T15:17:34.595Z,84.93
2022-12-05T15:20:14.554Z,84.96
2022-12-05T15:22:41.727Z,84.91
2022-12-05T15:25:31.863Z,85.09
2022-12-05T15:28:06.720Z,85.27
2022-12-05T15:30:38.583Z,84.87
2022-12-05T15:33:12.400Z,84.81
2022-12-05T15:35:41.271Z,84.93
2022-12-05T15:38:27.309Z,84.25
2022-12-05T15:40:55.162Z,85.11
2022-12-05T15:43:30.535Z,85.17
2022-12-05T15:46:09.021Z,84.73
2022-12-05T15:48:35.987Z,84.58
2022-12-05T15:51:03.537Z,84.50
2022-12-05T15:53:37.038Z,87.60
2022-12-05T15:56:14.048Z,87.06
2022-12-05T15:58:48.409Z,85.88
2022-12-05T16:01:20.438Z,86.10
2022-12-05T16:03:54.460Z,85.85
2022-12-05T16:06:32.388Z,85.54
2022-12-05T16:09:08.757Z,85.63
2022-12-05T16:11:39.407Z,85.28
2022-12-05T16:14:08.466Z,85.26
2022-12-05T16:16:38.754Z,85.31
2022-12-05T16:19:15.471Z,86.65
2022-12-05T16:21:45.685Z,87.80
2022-12-05T16:24:19.697Z,87.81
2022-12-05T16:26:58.838Z,88.22
2022-12-05T16:29:30.081Z,87.84
2022-12-05T16:31:59.498Z,88.67
2022-12-05T16:34:29.584Z,90.79
2022-12-05T16:36:57.606Z,90.86
2022-12-05T16:39:27.840Z,90.64
2022-12-05T16:41:55.549Z,90.63
2022-12-05T16:45:01.075Z,90.53
2022-12-05T16:48:00.584Z,89.86
2022-12-05T16:50:32.651Z,89.76
2022-12-05T16:53:16.178Z,89.25
2022-12-05T16:55:45.098Z,88.79
2022-12-05T16:58:21.688Z,89.38
2022-12-05T17:00:50.765Z,89.51
2022-12-05T17:03:33.908Z,90.04
2022-12-05T17:06:01.645Z,90.08
2022-12-05T17:08:28.546Z,90.44
2022-12-05T17:10:57.024Z,91.28
2022-12-05T17:13:23.786Z,91.04
2022-12-05T17:15:52.003Z,90.83
2022-12-05T17:18:23.220Z,91.13
2022-12-05T17:20:57.334Z,91.00
2022-12-05T17:23:24.153Z,90.88
2022-12-05T17:25:53.576Z,90.76
2022-12-05T17:28:21.152Z,90.35
2022-12-05T17:30:48.320Z,89.97
2022-12-05T17:33:18.278Z,89.94
2022-12-05T17:35:45.807Z,89.24
2022-12-05T17:38:12.635Z,89.38
2022-12-05T17:40:40.173Z,88.86
2022-12-05T17:43:07.121Z,88.75
2022-12-05T17:45:33.866Z,88.90
2022-12-05T17:48:00.953Z,88.47
2022-12-05T17:50:29.358Z,88.15
2022-12-05T17:52:58.884Z,88.33
2022-12-05T17:55:29.461Z,88.50
2022-12-05T17:57:56.530Z,88.22
2022-12-05T18:00:24.978Z,88.47
2022-12-05T18:02:52.679Z,87.96
2022-12-05T18:05:19.972Z,88.40
2022-12-05T18:07:48.615Z,88.88
2022-12-05T18:10:20.907Z,89.00
2022-12-05T18:12:49.288Z,89.40
2022-12-05T18:15:17.144Z,89.20
2022-12-05T18:17:44.671Z,89.44
2022-12-05T18:20:15.463Z,88.88
2022-12-05T18:22:43.904Z,88.50
2022-12-05T18:25:12.195Z,88.23
2022-12-05T18:27:38.990Z,88.04
2022-12-05T18:30:07.790Z,88.40
2022-12-05T18:32:34.699Z,88.81
2022-12-05T18:35:02.140Z,88.71
2022-12-05T18:37:29.356Z,88.34
2022-12-05T18:39:56.524Z,88.62
2022-12-05T18:42:24.809Z,89.00
2022-12-05T18:44:51.633Z,88.55
2022-12-05T18:47:19.027Z,88.35
2022-12-05T18:49:46.072Z,88.68
2022-12-05T18:52:13.361Z,88.45
2022-12-05T18:54:40.262Z,88.35
2022-12-05T18:57:07.117Z,88.57
2022-12-05T18:59:35.553Z,88.73
2022-12-05T19:02:03.258Z,88.92
2022-12-05T19:04:30.722Z,89.16
2022-12-05T19:07:00.198Z,89.71
2022-12-05T19:09:30.520Z,90.40
2022-12-05T19:11:59.014Z,89.74
2022-12-05T19:14:28.186Z,90.12
2022-12-05T19:17:00.242Z,90.28
2022-12-05T19:19:29.377Z,90.04
2022-12-05T19:21:56.175Z,89.94
2022-12-05T19:24:23.543Z,89.29
2022-12-05T19:26:50.319Z,89.24
2022-12-05T19:29:17.526Z,89.12
2022-12-05T19:31:45.798Z,88.89
2022-12-05T19:34:14.223Z,88.74
2022-12-05T19:36:44.743Z,89.15
2022-12-05T19:39:16.733Z,89.26
2022-12-05T19:41:44.666Z,89.36
2022-12-05T19:44:12.634Z,89.23
2022-12-05T19:46:40.255Z,89.26
2022-12-05T19:49:11.094Z,89.18
2022-12-05T19:51:40.083Z,89.82
2022-12-05T19:54:08.589Z,90.24
2022-12-05T19:56:37.214Z,89.91
2022-12-05T19:59:05.971Z,89.58
2022-12-05T20:01:35.584Z,89.54
2022-12-05T20:04:07.086Z,89.04
2022-12-05T20:06:37.386Z,88.98
2022-12-05T20:09:07.782Z,89.23
2022-12-05T20:11:37.373Z,88.82
2022-12-05T20:14:04.636Z,88.99
2022-12-05T20:16:31.567Z,88.99
2022-12-05T20:18:59.155Z,89.56
2022-12-05T20:21:28.808Z,90.29
2022-12-05T20:23:56.532Z,90.95
2022-12-05T20:26:27.920Z,91.36
2022-12-05T20:28:56.402Z,91.44
2022-12-05T20:31:25.847Z,92.54
2022-12-05T20:33:54.249Z,93.27
2022-12-05T20:36:25.111Z,93.26
2022-12-05T20:38:56.080Z,93.29
2022-12-05T20:41:24.853Z,93.89
2022-12-05T20:43:55.791Z,93.69
2022-12-05T20:46:24.283Z,93.58
2022-12-05T20:48:52.431Z,93.13
2022-12-05T20:51:23.304Z,93.24
2022-12-05T20:53:51.054Z,93.51
2022-12-05T20:56:20.758Z,93.27
2022-12-05T20:58:52.036Z,93.49
2022-12-05T21:01:21.299Z,92.82
2022-12-05T21:03:50.284Z,92.64
2022-12-05T21:06:22.174Z,92.24
2022-12-05T21:08:50.328Z,91.88
2022-12-05T21:11:17.185Z,91.83
2022-12-05T21:13:44.860Z,90.37
2022-12-05T21:16:16.669Z,90.95
2022-12-05T21:18:44.789Z,90.73
2022-12-05T21:21:15.232Z,90.48
2022-12-05T21:23:42.270Z,89.63
2022-12-05T21:26:14.277Z,90.06
2022-12-05T21:28:42.952Z,89.72
2022-12-05T21:31:15.158Z,89.77
2022-12-05T21:33:46.427Z,90.02
2022-12-05T21:36:13.722Z,89.86
2022-12-05T21:38:40.746Z,89.31
2022-12-05T21:41:08.123Z,89.92
2022-12-05T21:43:36.175Z,89.99
2022-12-05T21:46:05.153Z,90.04
2022-12-05T21:48:34.465Z,90.32
2022-12-05T21:51:05.198Z,90.88
2022-12-05T21:53:32.308Z,90.86
2022-12-05T21:56:00.636Z,90.94
2022-12-05T21:58:30.317Z,90.35
2022-12-05T22:00:57.598Z,90.24
2022-12-05T22:03:24.355Z,89.43
2022-12-05T22:06:00.161Z,89.94
2022-12-05T22:08:29.161Z,89.73
2022-12-05T22:10:55.947Z,89.42
2022-12-05T22:13:22.775Z,89.69
2022-12-05T22:15:49.913Z,91.18
2022-12-05T22:18:16.677Z,91.66
2022-12-05T22:20:43.452Z,91.81
2022-12-05T22:23:16.630Z,91.97
2022-12-05T22:25:43.745Z,92.01
2022-12-05T22:28:10.454Z,92.07
2022-12-05T22:30:37.491Z,91.90
2022-12-05T22:33:04.392Z,91.62
2022-12-05T22:35:31.122Z,90.57
2022-12-05T22:37:57.927Z,91.15
2022-12-05T22:40:26.037Z,90.81
2022-12-05T22:42:53.145Z,91.19
2022-12-05T22:45:19.871Z,91.21
2022-12-05T22:47:46.669Z,91.28
2022-12-05T22:50:13.561Z,91.42
2022-12-05T22:52:40.339Z,91.37
2022-12-05T22:55:08.706Z,91.10
2022-12-05T22:57:37.008Z,90.41
2022-12-05T23:00:06.297Z,90.87
2022-12-05T23:02:33.118Z,90.71
2022-12-05T23:04:59.904Z,90.25
2022-12-05T23:07:26.865Z,90.40
2022-12-05T23:09:53.740Z,90.64
2022-12-05T23:12:20.504Z,91.00
2022-12-05T23:14:48.587Z,90.95
2022-12-05T23:17:15.334Z,91.22
2022-12-05T23:19:42.221Z,91.43
2022-12-05T23:22:08.946Z,91.88
2022-12-05T23:24:35.706Z,91.65
2022-12-05T23:27:02.500Z,91.81
2022-12-05T23:29:29.447Z,91.51
2022-12-05T23:31:57.551Z,91.35
2022-12-05T23:34:24.440Z,91.88
2022-12-05T23:36:51.202Z,92.53
2022-12-05T23:39:18.494Z,92.16
2022-12-05T23:41:45.298Z,92.40
2022-12-05T23:44:12.359Z,92.06
2022-12-05T23:46:39.231Z,92.61
2022-12-05T23:49:07.365Z,93.16
2022-12-05T23:51:34.516Z,92.73
2022-12-05T23:54:02.016Z,92.75
2022-12-05T23:56:32.357Z,92.14
2022-12-05T23:59:00.232Z,91.72
